Time,TemperatureF,DewpointF,PressureIn,WindDirection,WindDirectionDegrees,WindSpeedMPH,WindSpeedGustMPH,Humidity,HourlyPrecipIn,Conditions,Clouds,dailyrainin,SolarRadiationWatts/m^2,SoftwareType,DateUTC
2013-11-16 00:01:00,49.2,33.7,30.08,ENE,57,0.0,0.0,55,0.00,,,0.00,0,WeatherCatV1.22B15,2013-11-16 05:01:00,
2013-11-16 00:06:00,49.1,33.6,30.08,ESE,115,2.0,2.0,55,0.00,,,0.00,0,WeatherCatV1.22B15,2013-11-16 05:06:00,
2013-11-16 00:11:00,49.1,33.2,30.08,East,90,0.0,5.0,54,0.00,,,0.00,0,WeatherCatV1.22B15,2013-11-16 05:11:00,
2013-11-16 00:16:00,49.1,33.2,30.08,East,95,2.0,2.0,54,0.00,,,0.00,0,WeatherCatV1.22B15,2013-11-16 05:16:00,
2013-11-16 00:21:00,49.0,33.1,30.08,ESE,109,0.0,2.0,54,0.00,,,0.00,0,WeatherCatV1.22B15,2013-11-16 05:21:00,
2013-11-16 00:26:00,48.9,33.5,30.08,ESE,118,1.0,2.0,55,0.00,,,0.00,0,WeatherCatV1.22B15,2013-11-16 05:26:00,
2013-11-16 00:31:00,48.7,33.3,30.08,ESE,121,1.0,1.0,55,0.00,,,0.00,0,WeatherCatV1.22B15,2013-11-16 05:31:00,
2013-11-16 00:36:00,48.5,33.5,30.08,South,189,0.0,0.0,56,0.00,,,0.00,0,WeatherCatV1.22B15,2013-11-16 05:36:00,
2013-11-16 00:41:00,48.3,33.8,30.07,SSE,157,0.0,1.0,57,0.00,,,0.00,0,WeatherCatV1.22B15,2013-11-16 05:41:00,
2013-11-16 00:46:00,48.1,33.6,30.08,South,186,0.0,1.0,57,0.00,,,0.00,0,WeatherCatV1.22B15,2013-11-16 05:46:00,
2013-11-16 00:51:00,47.9,33.4,30.07,ESE,105,2.0,4.0,57,0.00,,,0.00,0,WeatherCatV1.22B15,2013-11-16 05:51:00,
2013-11-16 00:56:00,47.8,33.3,30.07,WSW,239,0.0,1.0,57,0.00,,,0.00,0,WeatherCatV1.22B15,2013-11-16 05:56:00,
2013-11-16 01:01:00,47.8,33.3,30.07,ESE,109,1.0,2.0,57,0.00,,,0.00,0,WeatherCatV1.22B15,2013-11-16 06:01:00,
2013-11-16 01:06:00,47.8,33.8,30.08,ESE,123,0.0,1.0,58,0.00,,,0.00,0,WeatherCatV1.22B15,2013-11-16 06:06:00,
2013-11-16 01:11:00,47.8,33.8,30.08,SE,130,2.0,4.0,58,0.00,,,0.00,0,WeatherCatV1.22B15,2013-11-16 06:11:00,
2013-11-16 01:16:00,47.8,33.8,30.08,ESE,116,0.0,1.0,58,0.00,,,0.00,0,WeatherCatV1.22B15,2013-11-16 06:16:00,
2013-11-16 01:21:00,47.8,34.2,30.09,ESE,116,0.0,0.0,59,0.00,,,0.00,0,WeatherCatV1.22B15,2013-11-16 06:21:00,
2013-11-16 01:26:00,47.8,34.6,30.09,ESE,116,0.0,1.0,60,0.00,,,0.00,0,WeatherCatV1.22B15,2013-11-16 06:26:00,
2013-11-16 01:31:00,47.6,34.0,30.09,ESE,116,0.0,1.0,59,0.00,,,0.00,0,WeatherCatV1.22B15,2013-11-16 06:31:00,
2013-11-16 01:36:00,47.4,34.2,30.09,ESE,116,0.0,1.0,60,0.00,,,0.00,0,WeatherCatV1.22B15,2013-11-16 06:36:00,
2013-11-16 01:41:00,47.3,33.7,30.09,ESE,116,0.0,0.0,59,0.00,,,0.00,0,WeatherCatV1.22B15,2013-11-16 06:41:00,
2013-11-16 01:46:00,47.2,33.6,30.10,WSW,250,1.0,2.0,59,0.00,,,0.00,0,WeatherCatV1.22B15,2013-11-16 06:46:00,
2013-11-16 01:51:00,47.2,34.0,30.10,WSW,250,1.0,3.0,60,0.00,,,0.00,0,WeatherCatV1.22B15,2013-11-16 06:51:00,
2013-11-16 01:56:00,47.2,34.0,30.10,WSW,250,0.0,2.0,60,0.00,,,0.00,0,WeatherCatV1.22B15,2013-11-16 06:56:00,
2013-11-16 02:01:00,47.3,34.1,30.10,WSW,250,1.0,2.0,60,0.00,,,0.00,0,WeatherCatV1.22B15,2013-11-16 07:01:00,
2013-11-16 02:06:00,47.3,34.1,30.10,WSW,249,1.0,2.0,60,0.00,,,0.00,0,WeatherCatV1.22B15,2013-11-16 07:06:00,
2013-11-16 02:11:00,47.3,34.1,30.10,WSW,249,2.0,3.0,60,0.00,,,0.00,0,WeatherCatV1.22B15,2013-11-16 07:11:00,
2013-11-16 02:16:00,47.5,33.9,30.10,WSW,243,2.0,2.0,59,0.00,,,0.00,0,WeatherCatV1.22B15,2013-11-16 07:16:00,
2013-11-16 02:21:00,47.5,34.3,30.10,WSW,243,0.0,1.0,60,0.00,,,0.00,0,WeatherCatV1.22B15,2013-11-16 07:21:00,
2013-11-16 02:26:00,47.6,34.0,30.11,WSW,243,2.0,3.0,59,0.00,,,0.00,0,WeatherCatV1.22B15,2013-11-16 07:26:00,
2013-11-16 02:31:00,47.6,34.0,30.10,WSW,243,2.0,2.0,59,0.00,,,0.00,0,WeatherCatV1.22B15,2013-11-16 07:31:00,
2013-11-16 02:36:00,47.7,34.1,30.10,WSW,243,2.0,2.0,59,0.00,,,0.00,0,WeatherCatV1.22B15,2013-11-16 07:36:00,
2013-11-16 02:41:00,47.7,34.1,30.10,WSW,243,0.0,1.0,59,0.00,,,0.00,0,WeatherCatV1.22B15,2013-11-16 07:41:00,
2013-11-16 02:46:00,47.8,34.2,30.10,WSW,243,1.0,1.0,59,0.00,,,0.00,0,WeatherCatV1.22B15,2013-11-16 07:46:00,
2013-11-16 02:51:00,47.8,34.2,30.10,WSW,243,0.0,0.0,59,0.00,,,0.00,0,WeatherCatV1.22B15,2013-11-16 07:51:00,
2013-11-16 02:56:00,47.9,34.3,30.10,WSW,243,0.0,0.0,59,0.00,,,0.00,0,WeatherCatV1.22B15,2013-11-16 07:56:00,
2013-11-16 03:01:00,47.9,33.8,30.10,WSW,243,0.0,0.0,58,0.00,,,0.00,0,WeatherCatV1.22B15,2013-11-16 08:01:00,
2013-11-16 03:06:00,47.9,33.8,30.10,WSW,243,0.0,0.0,58,0.00,,,0.00,0,WeatherCatV1.22B15,2013-11-16 08:06:00,
2013-11-16 03:11:00,47.9,33.8,30.10,WSW,243,0.0,0.0,58,0.00,,,0.00,0,WeatherCatV1.22B15,2013-11-16 08:11:00,
2013-11-16 03:16:00,48.0,33.9,30.09,WSW,243,0.0,0.0,58,0.00,,,0.00,0,WeatherCatV1.22B15,2013-11-16 08:16:00,
2013-11-16 03:21:00,48.0,33.9,30.09,WSW,243,0.0,0.0,58,0.00,,,0.00,0,WeatherCatV1.22B15,2013-11-16 08:21:00,
2013-11-16 03:26:00,48.1,34.0,30.09,WSW,243,0.0,0.0,58,0.00,,,0.00,0,WeatherCatV1.22B15,2013-11-16 08:26:00,
2013-11-16 03:31:00,48.2,33.7,30.09,WSW,243,0.0,1.0,57,0.00,,,0.00,0,WeatherCatV1.22B15,2013-11-16 08:31:00,
2013-11-16 03:36:00,48.3,34.2,30.10,WSW,243,0.0,1.0,58,0.00,,,0.00,0,WeatherCatV1.22B15,2013-11-16 08:36:00,
2013-11-16 03:41:00,48.3,34.2,30.10,WSW,243,0.0,0.0,58,0.00,,,0.00,0,WeatherCatV1.22B15,2013-11-16 08:41:00,
2013-11-16 03:46:00,48.4,34.3,30.10,WSW,243,0.0,0.0,58,0.00,,,0.00,0,WeatherCatV1.22B15,2013-11-16 08:46:00,
2013-11-16 03:51:00,48.4,34.7,30.10,WSW,243,0.0,0.0,59,0.00,,,0.00,0,WeatherCatV1.22B15,2013-11-16 08:51:00,
2013-11-16 03:56:00,48.3,34.7,30.10,WSW,243,1.0,2.0,59,0.00,,,0.00,0,WeatherCatV1.22B15,2013-11-16 08:56:00,
2013-11-16 04:01:00,48.3,34.2,30.10,WSW,243,0.0,1.0,58,0.00,,,0.00,0,WeatherCatV1.22B15,2013-11-16 09:01:00,
2013-11-16 04:06:00,48.3,33.8,30.10,WSW,244,0.0,1.0,57,0.00,,,0.00,0,WeatherCatV1.22B15,2013-11-16 09:06:00,
2013-11-16 04:11:00,48.2,34.1,30.11,West,267,0.0,3.0,58,0.00,,,0.00,0,WeatherCatV1.22B15,2013-11-16 09:11:00,
2013-11-16 04:16:00,48.2,33.7,30.10,WNW,287,1.0,3.0,57,0.00,,,0.00,0,WeatherCatV1.22B15,2013-11-16 09:16:00,
2013-11-16 04:21:00,48.2,33.7,30.10,WNW,282,0.0,1.0,57,0.00,,,0.00,0,WeatherCatV1.22B15,2013-11-16 09:21:00,
2013-11-16 04:26:00,48.2,33.2,30.10,WNW,282,0.0,2.0,56,0.00,,,0.00,0,WeatherCatV1.22B15,2013-11-16 09:26:00,
2013-11-16 04:31:00,48.2,33.7,30.10,WNW,282,0.0,0.0,57,0.00,,,0.00,0,WeatherCatV1.22B15,2013-11-16 09:31:00,
2013-11-16 04:36:00,48.2,33.7,30.10,WNW,282,0.0,0.0,57,0.00,,,0.00,0,WeatherCatV1.22B15,2013-11-16 09:36:00,
2013-11-16 04:41:00,48.2,33.7,30.10,WNW,282,0.0,0.0,57,0.00,,,0.00,0,WeatherCatV1.22B15,2013-11-16 09:41:00,
2013-11-16 04:46:00,48.3,33.3,30.10,WNW,282,0.0,1.0,56,0.00,,,0.00,0,WeatherCatV1.22B15,2013-11-16 09:46:00,
2013-11-16 04:51:00,48.3,33.8,30.10,WNW,282,0.0,0.0,57,0.00,,,0.00,0,WeatherCatV1.22B15,2013-11-16 09:51:00,
2013-11-16 04:56:00,48.2,34.1,30.11,WNW,282,0.0,0.0,58,0.00,,,0.00,0,WeatherCatV1.22B15,2013-11-16 09:56:00,
2013-11-16 05:01:00,48.3,34.7,30.11,WNW,282,0.0,0.0,59,0.00,,,0.00,0,WeatherCatV1.22B15,2013-11-16 10:01:00,
2013-11-16 05:06:00,48.3,35.9,30.11,WNW,282,0.0,0.0,62,0.00,,,0.00,0,WeatherCatV1.22B15,2013-11-16 10:06:00,
2013-11-16 05:11:00,48.2,36.2,30.12,WNW,282,0.0,0.0,63,0.00,,,0.00,0,WeatherCatV1.22B15,2013-11-16 10:11:00,
2013-11-16 05:16:00,48.2,36.2,30.12,WNW,282,0.0,0.0,63,0.00,,,0.00,0,WeatherCatV1.22B15,2013-11-16 10:16:00,
2013-11-16 05:21:00,48.1,35.3,30.12,WNW,282,0.0,0.0,61,0.00,,,0.00,0,WeatherCatV1.22B15,2013-11-16 10:21:00,
2013-11-16 05:26:00,47.9,35.5,30.12,WNW,282,1.0,2.0,62,0.00,,,0.00,0,WeatherCatV1.22B15,2013-11-16 10:26:00,
2013-11-16 05:31:00,47.8,35.8,30.12,WNW,282,0.0,0.0,63,0.00,,,0.00,0,WeatherCatV1.22B15,2013-11-16 10:31:00,
2013-11-16 05:36:00,47.8,37.0,30.12,WNW,282,0.0,0.0,66,0.00,,,0.00,0,WeatherCatV1.22B15,2013-11-16 10:36:00,
2013-11-16 05:41:00,47.7,37.7,30.13,WNW,282,0.0,0.0,68,0.00,,,0.00,0,WeatherCatV1.22B15,2013-11-16 10:41:00,
2013-11-16 05:46:00,47.6,38.3,30.13,WNW,282,0.0,0.0,70,0.00,,,0.00,0,WeatherCatV1.22B15,2013-11-16 10:46:00,
2013-11-16 05:51:00,47.5,38.6,30.13,WNW,282,0.0,0.0,71,0.00,,,0.00,0,WeatherCatV1.22B15,2013-11-16 10:51:00,
2013-11-16 05:56:00,47.3,39.1,30.14,WNW,282,0.0,0.0,73,0.00,,,0.00,0,WeatherCatV1.22B15,2013-11-16 10:56:00,
2013-11-16 06:01:00,47.2,39.7,30.14,WNW,282,0.0,0.0,75,0.00,,,0.00,0,WeatherCatV1.22B15,2013-11-16 11:01:00,
2013-11-16 06:06:00,47.0,39.8,30.14,WNW,282,0.0,0.0,76,0.00,,,0.00,0,WeatherCatV1.22B15,2013-11-16 11:06:00,
2013-11-16 06:11:00,46.8,39.6,30.14,WNW,282,0.0,0.0,76,0.00,,,0.00,0,WeatherCatV1.22B15,2013-11-16 11:11:00,
2013-11-16 06:16:00,46.6,40.4,30.14,WNW,282,0.0,0.0,79,0.00,,,0.00,0,WeatherCatV1.22B15,2013-11-16 11:16:00,
2013-11-16 06:21:00,46.3,40.5,30.15,WNW,282,0.0,0.0,80,0.00,,,0.00,0,WeatherCatV1.22B15,2013-11-16 11:21:00,
2013-11-16 06:26:00,45.9,40.7,30.14,WNW,282,0.0,0.0,82,0.00,,,0.01,0,WeatherCatV1.22B15,2013-11-16 11:26:00,
2013-11-16 06:31:00,45.7,40.8,30.15,WNW,282,0.0,0.0,83,0.00,,,0.01,0,WeatherCatV1.22B15,2013-11-16 11:31:00,
2013-11-16 06:36:00,45.4,40.8,30.15,WNW,282,0.0,0.0,84,0.04,,,0.02,0,WeatherCatV1.22B15,2013-11-16 11:36:00,
2013-11-16 06:41:00,45.2,41.0,30.15,WNW,282,0.0,0.0,85,0.04,,,0.02,0,WeatherCatV1.22B15,2013-11-16 11:41:00,
2013-11-16 06:46:00,45.1,41.2,30.15,WNW,282,0.0,0.0,86,0.04,,,0.02,0,WeatherCatV1.22B15,2013-11-16 11:46:00,
2013-11-16 06:51:00,44.9,41.0,30.15,WNW,282,0.0,0.0,86,0.04,,,0.02,0,WeatherCatV1.22B15,2013-11-16 11:51:00,
2013-11-16 06:56:00,44.8,41.5,30.15,WNW,282,0.0,0.0,88,0.04,,,0.03,0,WeatherCatV1.22B15,2013-11-16 11:56:00,
2013-11-16 07:01:00,44.6,41.3,30.15,WNW,282,0.0,0.0,88,0.04,,,0.03,0,WeatherCatV1.22B15,2013-11-16 12:01:00,
2013-11-16 07:06:00,44.5,41.5,30.15,WNW,282,0.0,0.0,89,0.04,,,0.03,5,WeatherCatV1.22B15,2013-11-16 12:06:00,
2013-11-16 07:11:00,44.5,41.5,30.16,WNW,282,0.0,0.0,89,0.04,,,0.04,5,WeatherCatV1.22B15,2013-11-16 12:11:00,
2013-11-16 07:16:00,44.4,41.7,30.16,WNW,282,0.0,0.0,90,0.04,,,0.04,7,WeatherCatV1.22B15,2013-11-16 12:16:00,
2013-11-16 07:21:00,44.4,41.7,30.16,WNW,282,0.0,0.0,90,0.04,,,0.04,9,WeatherCatV1.22B15,2013-11-16 12:21:00,
2013-11-16 07:26:00,44.3,41.8,30.16,WNW,282,0.0,0.0,91,0.00,,,0.04,7,WeatherCatV1.22B15,2013-11-16 12:26:00,
2013-11-16 07:31:00,44.3,41.8,30.16,WNW,282,0.0,0.0,91,0.00,,,0.05,7,WeatherCatV1.22B15,2013-11-16 12:31:00,
2013-11-16 07:36:00,44.3,42.1,30.16,WNW,282,0.0,0.0,92,0.00,,,0.05,11,WeatherCatV1.22B15,2013-11-16 12:36:00,
2013-11-16 07:41:00,44.4,42.2,30.16,WNW,282,0.0,0.0,92,0.00,,,0.05,25,WeatherCatV1.22B15,2013-11-16 12:41:00,
2013-11-16 07:46:00,44.4,42.2,30.16,WNW,282,0.0,0.0,92,0.00,,,0.05,33,WeatherCatV1.22B15,2013-11-16 12:46:00,
2013-11-16 07:51:00,44.5,42.3,30.16,WNW,282,0.0,0.0,92,0.00,,,0.05,63,WeatherCatV1.22B15,2013-11-16 12:51:00,
2013-11-16 07:56:00,44.9,43.3,30.16,WNW,282,0.0,0.0,94,0.00,,,0.05,46,WeatherCatV1.22B15,2013-11-16 12:56:00,
2013-11-16 08:01:00,45.3,43.7,30.16,WNW,282,0.0,0.0,94,0.00,,,0.05,39,WeatherCatV1.22B15,2013-11-16 13:01:00,
2013-11-16 08:06:00,45.5,44.2,30.16,WNW,282,0.0,0.0,95,0.00,,,0.05,42,WeatherCatV1.22B15,2013-11-16 13:06:00,
2013-11-16 08:11:00,45.8,44.5,30.16,WNW,282,0.0,0.0,95,0.00,,,0.06,39,WeatherCatV1.22B15,2013-11-16 13:11:00,
2013-11-16 08:16:00,46.0,44.7,30.16,WNW,282,0.0,0.0,95,0.00,,,0.06,25,WeatherCatV1.22B15,2013-11-16 13:16:00,
2013-11-16 08:21:00,46.0,44.7,30.16,WNW,282,0.0,0.0,95,0.00,,,0.06,37,WeatherCatV1.22B15,2013-11-16 13:21:00,
2013-11-16 08:26:00,46.3,45.0,30.16,WNW,282,0.0,0.0,95,0.00,,,0.06,58,WeatherCatV1.22B15,2013-11-16 13:26:00,
2013-11-16 08:31:00,46.5,45.4,30.16,WNW,282,0.0,0.0,96,0.00,,,0.06,40,WeatherCatV1.22B15,2013-11-16 13:31:00,
2013-11-16 08:36:00,46.7,45.6,30.16,WNW,282,0.0,0.0,96,0.00,,,0.06,56,WeatherCatV1.22B15,2013-11-16 13:36:00,
2013-11-16 08:41:00,47.0,45.9,30.16,WNW,282,0.0,0.0,96,0.00,,,0.06,54,WeatherCatV1.22B15,2013-11-16 13:41:00,
2013-11-16 08:46:00,47.1,46.0,30.16,WNW,282,0.0,0.0,96,0.00,,,0.06,63,WeatherCatV1.22B15,2013-11-16 13:46:00,
2013-11-16 08:51:00,47.2,46.1,30.16,WNW,282,0.0,0.0,96,0.00,,,0.06,72,WeatherCatV1.22B15,2013-11-16 13:51:00,
2013-11-16 08:56:00,47.4,46.3,30.16,WNW,282,0.0,0.0,96,0.00,,,0.06,79,WeatherCatV1.22B15,2013-11-16 13:56:00,
2013-11-16 09:01:00,47.7,46.6,30.16,WNW,282,0.0,0.0,96,0.00,,,0.06,69,WeatherCatV1.22B15,2013-11-16 14:01:00,
2013-11-16 09:06:00,47.7,46.6,30.16,WNW,282,0.0,0.0,96,0.00,,,0.06,77,WeatherCatV1.22B15,2013-11-16 14:06:00,
2013-11-16 09:11:00,48.0,46.9,30.16,WNW,282,0.0,0.0,96,0.00,,,0.06,102,WeatherCatV1.22B15,2013-11-16 14:11:00,
2013-11-16 09:16:00,48.3,47.2,30.16,WNW,282,0.0,0.0,96,0.00,,,0.06,97,WeatherCatV1.22B15,2013-11-16 14:16:00,
2013-11-16 09:21:00,48.4,47.3,30.16,WNW,282,0.0,0.0,96,0.00,,,0.06,95,WeatherCatV1.22B15,2013-11-16 14:21:00,
2013-11-16 09:26:00,48.7,47.3,30.16,WNW,282,0.0,0.0,95,0.00,,,0.06,98,WeatherCatV1.22B15,2013-11-16 14:26:00,
2013-11-16 09:31:00,49.0,47.6,30.17,WNW,282,0.0,0.0,95,0.00,,,0.06,128,WeatherCatV1.22B15,2013-11-16 14:31:00,
2013-11-16 09:36:00,49.1,46.9,30.17,SE,136,0.0,2.0,92,0.00,,,0.06,139,WeatherCatV1.22B15,2013-11-16 14:36:00,
2013-11-16 09:41:00,49.6,47.1,30.17,SE,136,0.0,1.0,91,0.00,,,0.06,195,WeatherCatV1.22B15,2013-11-16 14:41:00,
2013-11-16 09:46:00,50.3,46.9,30.17,SE,136,1.0,1.0,88,0.00,,,0.06,202,WeatherCatV1.22B15,2013-11-16 14:46:00,
2013-11-16 09:51:00,50.8,47.7,30.17,SSE,159,2.0,2.0,89,0.00,,,0.06,169,WeatherCatV1.22B15,2013-11-16 14:51:00,
2013-11-16 09:56:00,50.8,48.0,30.17,SSE,159,0.0,0.0,90,0.00,,,0.06,204,WeatherCatV1.22B15,2013-11-16 14:56:00,
2013-11-16 10:01:00,50.9,47.5,30.17,SSE,159,0.0,0.0,88,0.00,,,0.06,339,WeatherCatV1.22B15,2013-11-16 15:01:00,
2013-11-16 10:06:00,51.5,48.4,30.17,SSE,159,1.0,1.0,89,0.00,,,0.06,295,WeatherCatV1.22B15,2013-11-16 15:06:00,
2013-11-16 10:11:00,51.7,47.7,30.17,SSE,159,0.0,1.0,86,0.00,,,0.06,473,WeatherCatV1.22B15,2013-11-16 15:11:00,
2013-11-16 10:16:00,52.0,47.3,30.17,SSE,159,0.0,0.0,84,0.00,,,0.06,323,WeatherCatV1.22B15,2013-11-16 15:16:00,
2013-11-16 10:21:00,52.6,48.2,30.17,SSE,159,0.0,0.0,85,0.00,,,0.06,450,WeatherCatV1.22B15,2013-11-16 15:21:00,
2013-11-16 10:26:00,53.3,49.2,30.17,SSE,159,0.0,0.0,86,0.00,,,0.06,459,WeatherCatV1.22B15,2013-11-16 15:26:00,
2013-11-16 10:31:00,53.8,49.7,30.17,SSE,159,0.0,0.0,86,0.00,,,0.06,468,WeatherCatV1.22B15,2013-11-16 15:31:00,
2013-11-16 10:36:00,53.7,48.7,30.17,SSE,159,0.0,0.0,83,0.00,,,0.06,475,WeatherCatV1.22B15,2013-11-16 15:36:00,
2013-11-16 10:41:00,54.2,49.8,30.17,SE,140,1.0,1.0,85,0.00,,,0.06,476,WeatherCatV1.22B15,2013-11-16 15:41:00,
2013-11-16 10:46:00,54.7,48.7,30.17,SE,143,0.0,0.0,80,0.00,,,0.06,478,WeatherCatV1.22B15,2013-11-16 15:46:00,
2013-11-16 10:51:00,55.5,50.7,30.17,SE,143,0.0,0.0,84,0.00,,,0.06,480,WeatherCatV1.22B15,2013-11-16 15:51:00,
2013-11-16 10:56:00,56.0,48.9,30.17,ESE,123,0.0,4.0,77,0.00,,,0.06,485,WeatherCatV1.22B15,2013-11-16 15:56:00,
2013-11-16 11:01:00,56.0,48.2,30.17,ESE,109,2.0,2.0,75,0.00,,,0.06,485,WeatherCatV1.22B15,2013-11-16 16:01:00,
2013-11-16 11:06:00,55.6,49.5,30.17,SW,215,0.0,1.0,80,0.00,,,0.06,490,WeatherCatV1.22B15,2013-11-16 16:06:00,
2013-11-16 11:11:00,56.2,48.0,30.16,East,93,0.0,2.0,74,0.00,,,0.06,494,WeatherCatV1.22B15,2013-11-16 16:11:00,
2013-11-16 11:16:00,56.3,49.9,30.16,East,99,1.0,1.0,79,0.00,,,0.06,494,WeatherCatV1.22B15,2013-11-16 16:16:00,
2013-11-16 11:21:00,56.6,48.8,30.16,ESE,112,1.0,3.0,75,0.00,,,0.06,496,WeatherCatV1.22B15,2013-11-16 16:21:00,
2013-11-16 11:26:00,56.6,46.9,30.16,SE,132,0.0,1.0,70,0.00,,,0.06,499,WeatherCatV1.22B15,2013-11-16 16:26:00,
2013-11-16 11:31:00,56.9,48.0,30.16,ESE,121,4.0,4.0,72,0.00,,,0.06,497,WeatherCatV1.22B15,2013-11-16 16:31:00,
2013-11-16 11:36:00,56.8,46.3,30.15,SE,134,0.0,2.0,68,0.00,,,0.06,499,WeatherCatV1.22B15,2013-11-16 16:36:00,
2013-11-16 11:41:00,57.0,47.7,30.15,SW,234,0.0,3.0,71,0.00,,,0.06,497,WeatherCatV1.22B15,2013-11-16 16:41:00,
2013-11-16 11:46:00,56.9,46.8,30.15,ESE,119,0.0,1.0,69,0.00,,,0.06,494,WeatherCatV1.22B15,2013-11-16 16:46:00,
2013-11-16 11:51:00,56.2,46.5,30.15,ESE,121,0.0,0.0,70,0.00,,,0.06,496,WeatherCatV1.22B15,2013-11-16 16:51:00,
2013-11-16 11:56:00,55.7,47.2,30.14,ESE,121,0.0,0.0,73,0.00,,,0.06,490,WeatherCatV1.22B15,2013-11-16 16:56:00,
2013-11-16 12:01:00,55.1,46.6,30.14,ESE,121,2.0,2.0,73,0.00,,,0.06,485,WeatherCatV1.22B15,2013-11-16 17:01:00,
2013-11-16 12:06:00,55.9,46.6,30.14,ESE,117,1.0,2.0,71,0.00,,,0.06,69,WeatherCatV1.22B15,2013-11-16 17:06:00,
2013-11-16 12:11:00,56.1,47.2,30.14,ESE,117,0.0,1.0,72,0.00,,,0.06,67,WeatherCatV1.22B15,2013-11-16 17:11:00,
2013-11-16 12:16:00,56.5,46.8,30.13,ESE,105,0.0,4.0,70,0.00,,,0.06,67,WeatherCatV1.22B15,2013-11-16 17:16:00,
2013-11-16 12:21:00,56.7,46.6,30.13,SE,144,2.0,5.0,69,0.00,,,0.06,127,WeatherCatV1.22B15,2013-11-16 17:21:00,
2013-11-16 12:26:00,57.2,46.3,30.13,ESE,105,4.0,4.0,67,0.00,,,0.06,67,WeatherCatV1.22B15,2013-11-16 17:26:00,
2013-11-16 12:31:00,57.4,46.5,30.13,ESE,114,1.0,3.0,67,0.00,,,0.06,65,WeatherCatV1.22B15,2013-11-16 17:31:00,
2013-11-16 12:36:00,57.2,46.7,30.13,NNE,20,0.0,2.0,68,0.00,,,0.06,65,WeatherCatV1.22B15,2013-11-16 17:36:00,
2013-11-16 12:41:00,57.2,46.3,30.13,WSW,241,2.0,6.0,67,0.00,,,0.06,63,WeatherCatV1.22B15,2013-11-16 17:41:00,
2013-11-16 12:46:00,57.4,46.1,30.13,ESE,121,4.0,5.0,66,0.00,,,0.06,65,WeatherCatV1.22B15,2013-11-16 17:46:00,
2013-11-16 12:51:00,57.7,46.8,30.13,WSW,244,1.0,5.0,67,0.00,,,0.06,63,WeatherCatV1.22B15,2013-11-16 17:51:00,
2013-11-16 12:56:00,57.1,46.6,30.13,WSW,245,0.0,3.0,68,0.00,,,0.06,63,WeatherCatV1.22B15,2013-11-16 17:56:00,
2013-11-16 13:01:00,56.8,46.7,30.14,WSW,247,1.0,2.0,69,0.00,,,0.06,60,WeatherCatV1.22B15,2013-11-16 18:01:00,
2013-11-16 13:06:00,57.0,46.2,30.13,SW,236,0.0,2.0,67,0.00,,,0.06,58,WeatherCatV1.22B15,2013-11-16 18:06:00,
2013-11-16 13:11:00,57.0,46.2,30.13,SW,236,0.0,1.0,67,0.00,,,0.06,54,WeatherCatV1.22B15,2013-11-16 18:11:00,
2013-11-16 13:16:00,57.1,46.2,30.13,ESE,123,1.0,5.0,67,0.00,,,0.06,54,WeatherCatV1.22B15,2013-11-16 18:16:00,
2013-11-16 13:21:00,57.3,47.6,30.14,SW,229,2.0,2.0,70,0.00,,,0.06,53,WeatherCatV1.22B15,2013-11-16 18:21:00,
2013-11-16 13:26:00,57.4,47.3,30.13,West,263,5.0,5.0,69,0.00,,,0.06,53,WeatherCatV1.22B15,2013-11-16 18:26:00,
2013-11-16 13:31:00,57.4,46.9,30.14,East,94,4.0,7.0,68,0.00,,,0.06,51,WeatherCatV1.22B15,2013-11-16 18:31:00,
2013-11-16 13:36:00,57.3,47.6,30.14,WSW,246,3.0,3.0,70,0.00,,,0.06,51,WeatherCatV1.22B15,2013-11-16 18:36:00,
2013-11-16 13:41:00,57.3,47.6,30.14,WSW,240,2.0,2.0,70,0.00,,,0.06,47,WeatherCatV1.22B15,2013-11-16 18:41:00,
2013-11-16 13:46:00,57.3,46.8,30.13,SSE,153,0.0,5.0,68,0.00,,,0.06,47,WeatherCatV1.22B15,2013-11-16 18:46:00,
2013-11-16 13:51:00,57.2,47.5,30.13,SSW,204,0.0,1.0,70,0.00,,,0.06,44,WeatherCatV1.22B15,2013-11-16 18:51:00,
2013-11-16 13:56:00,57.1,47.0,30.13,ESE,120,4.0,4.0,69,0.00,,,0.06,44,WeatherCatV1.22B15,2013-11-16 18:56:00,
2013-11-16 14:01:00,57.0,47.3,30.13,SE,125,0.0,5.0,70,0.00,,,0.06,42,WeatherCatV1.22B15,2013-11-16 19:01:00,
2013-11-16 14:06:00,56.9,46.8,30.12,East,94,2.0,4.0,69,0.00,,,0.06,46,WeatherCatV1.22B15,2013-11-16 19:06:00,
2013-11-16 14:11:00,56.9,47.2,30.13,WSW,239,1.0,4.0,70,0.00,,,0.06,44,WeatherCatV1.22B15,2013-11-16 19:11:00,
2013-11-16 14:16:00,56.9,47.6,30.13,East,99,1.0,4.0,71,0.00,,,0.06,46,WeatherCatV1.22B15,2013-11-16 19:16:00,
2013-11-16 14:21:00,56.8,47.5,30.13,WSW,254,1.0,4.0,71,0.00,,,0.06,39,WeatherCatV1.22B15,2013-11-16 19:21:00,
2013-11-16 14:26:00,56.6,46.9,30.13,East,100,0.0,6.0,70,0.00,,,0.06,39,WeatherCatV1.22B15,2013-11-16 19:26:00,
2013-11-16 14:31:00,56.5,48.0,30.13,WSW,239,0.0,0.0,73,0.00,,,0.06,51,WeatherCatV1.22B15,2013-11-16 19:31:00,
2013-11-16 14:36:00,56.5,47.6,30.13,SE,130,0.0,4.0,72,0.00,,,0.06,49,WeatherCatV1.22B15,2013-11-16 19:36:00,
2013-11-16 14:41:00,56.4,47.5,30.14,ESE,110,0.0,2.0,72,0.00,,,0.06,60,WeatherCatV1.22B15,2013-11-16 19:41:00,
2013-11-16 14:46:00,56.3,47.4,30.14,ESE,123,1.0,2.0,72,0.00,,,0.06,46,WeatherCatV1.22B15,2013-11-16 19:46:00,
2013-11-16 14:51:00,56.2,47.3,30.14,ESE,115,2.0,6.0,72,0.00,,,0.06,47,WeatherCatV1.22B15,2013-11-16 19:51:00,
2013-11-16 14:56:00,56.1,47.2,30.14,ESE,105,5.0,6.0,72,0.00,,,0.06,42,WeatherCatV1.22B15,2013-11-16 19:56:00,
2013-11-16 15:01:00,56.0,47.1,30.15,ESE,103,4.0,6.0,72,0.00,,,0.06,39,WeatherCatV1.22B15,2013-11-16 20:01:00,
2013-11-16 15:06:00,56.0,47.5,30.15,West,260,2.0,3.0,73,0.00,,,0.06,33,WeatherCatV1.22B15,2013-11-16 20:06:00,
2013-11-16 15:11:00,55.9,47.4,30.15,WSW,241,2.0,5.0,73,0.00,,,0.06,35,WeatherCatV1.22B15,2013-11-16 20:11:00,
2013-11-16 15:16:00,55.9,47.0,30.15,ESE,107,1.0,1.0,72,0.00,,,0.06,49,WeatherCatV1.22B15,2013-11-16 20:16:00,
2013-11-16 15:21:00,55.9,47.0,30.15,WNW,285,0.0,5.0,72,0.00,,,0.06,49,WeatherCatV1.22B15,2013-11-16 20:21:00,
2013-11-16 15:26:00,55.7,47.2,30.15,SSE,152,0.0,0.0,73,0.00,,,0.06,40,WeatherCatV1.22B15,2013-11-16 20:26:00,
2013-11-16 15:31:00,55.7,47.5,30.15,ESE,115,2.0,4.0,74,0.00,,,0.06,32,WeatherCatV1.22B15,2013-11-16 20:31:00,
2013-11-16 15:36:00,55.6,47.4,30.15,ENE,74,2.0,7.0,74,0.00,,,0.06,28,WeatherCatV1.22B15,2013-11-16 20:36:00,
2013-11-16 15:41:00,55.3,47.2,30.15,ESE,117,2.0,5.0,74,0.00,,,0.06,30,WeatherCatV1.22B15,2013-11-16 20:41:00,
2013-11-16 15:46:00,55.1,47.3,30.15,East,96,2.0,6.0,75,0.00,,,0.06,19,WeatherCatV1.22B15,2013-11-16 20:46:00,
2013-11-16 15:51:00,54.9,47.1,30.15,ESE,109,7.0,7.0,75,0.00,,,0.06,16,WeatherCatV1.22B15,2013-11-16 20:51:00,
2013-11-16 15:56:00,54.7,47.6,30.15,SE,146,2.0,5.0,77,0.00,,,0.06,16,WeatherCatV1.22B15,2013-11-16 20:56:00,
2013-11-16 16:01:00,54.3,47.6,30.14,ESE,122,2.0,4.0,78,0.00,,,0.06,26,WeatherCatV1.22B15,2013-11-16 21:01:00,
2013-11-16 16:06:00,53.9,47.5,30.14,ESE,123,0.0,5.0,79,0.00,,,0.06,21,WeatherCatV1.22B15,2013-11-16 21:06:00,
2013-11-16 16:11:00,53.6,47.6,30.14,ESE,118,2.0,4.0,80,0.00,,,0.06,23,WeatherCatV1.22B15,2013-11-16 21:11:00,
2013-11-16 16:16:00,53.4,47.7,30.14,ESE,107,4.0,5.0,81,0.00,,,0.06,16,WeatherCatV1.22B15,2013-11-16 21:16:00,
2013-11-16 16:21:00,53.2,47.2,30.14,ESE,103,2.0,6.0,80,0.00,,,0.06,11,WeatherCatV1.22B15,2013-11-16 21:21:00,
2013-11-16 16:26:00,52.8,47.1,30.14,ESE,106,2.0,5.0,81,0.00,,,0.06,7,WeatherCatV1.22B15,2013-11-16 21:26:00,
2013-11-16 16:31:00,52.5,47.2,30.14,East,90,2.0,6.0,82,0.00,,,0.06,5,WeatherCatV1.22B15,2013-11-16 21:31:00,
2013-11-16 16:36:00,52.3,47.0,30.14,ESE,121,1.0,4.0,82,0.00,,,0.06,0,WeatherCatV1.22B15,2013-11-16 21:36:00,
2013-11-16 16:41:00,52.1,47.1,30.14,East,82,3.0,7.0,83,0.00,,,0.06,0,WeatherCatV1.22B15,2013-11-16 21:41:00,
2013-11-16 16:46:00,52.1,47.4,30.14,ESE,112,2.0,4.0,84,0.00,,,0.06,0,WeatherCatV1.22B15,2013-11-16 21:46:00,
2013-11-16 16:51:00,51.9,47.5,30.15,ESE,103,5.0,6.0,85,0.00,,,0.06,0,WeatherCatV1.22B15,2013-11-16 21:51:00,
2013-11-16 16:56:00,51.7,47.3,30.15,ESE,121,0.0,2.0,85,0.00,,,0.06,0,WeatherCatV1.22B15,2013-11-16 21:56:00,
2013-11-16 17:01:00,51.3,47.2,30.15,ESE,117,0.0,1.0,86,0.00,,,0.06,0,WeatherCatV1.22B15,2013-11-16 22:01:00,
2013-11-16 17:06:00,51.0,47.3,30.15,ESE,112,0.0,1.0,87,0.00,,,0.06,0,WeatherCatV1.22B15,2013-11-16 22:06:00,
2013-11-16 17:11:00,50.8,47.1,30.15,SE,130,0.0,2.0,87,0.00,,,0.06,0,WeatherCatV1.22B15,2013-11-16 22:11:00,
2013-11-16 17:16:00,50.7,47.3,30.15,ESE,116,0.0,2.0,88,0.00,,,0.06,0,WeatherCatV1.22B15,2013-11-16 22:16:00,
2013-11-16 17:21:00,50.5,47.1,30.15,SE,128,0.0,0.0,88,0.00,,,0.06,0,WeatherCatV1.22B15,2013-11-16 22:21:00,
2013-11-16 17:26:00,50.3,47.2,30.15,SE,129,0.0,4.0,89,0.00,,,0.06,0,WeatherCatV1.22B15,2013-11-16 22:26:00,
2013-11-16 17:31:00,50.2,47.1,30.15,SE,133,0.0,1.0,89,0.00,,,0.06,0,WeatherCatV1.22B15,2013-11-16 22:31:00,
2013-11-16 17:36:00,50.0,47.2,30.15,ESE,105,2.0,4.0,90,0.00,,,0.06,0,WeatherCatV1.22B15,2013-11-16 22:36:00,
2013-11-16 17:41:00,49.9,47.1,30.15,SE,134,0.0,0.0,90,0.00,,,0.06,0,WeatherCatV1.22B15,2013-11-16 22:41:00,
2013-11-16 17:46:00,49.7,46.9,30.15,SE,132,0.0,1.0,90,0.00,,,0.06,0,WeatherCatV1.22B15,2013-11-16 22:46:00,
2013-11-16 17:51:00,49.6,47.1,30.15,SE,143,0.0,2.0,91,0.00,,,0.06,0,WeatherCatV1.22B15,2013-11-16 22:51:00,
2013-11-16 17:56:00,49.5,47.0,30.15,South,171,0.0,0.0,91,0.00,,,0.06,0,WeatherCatV1.22B15,2013-11-16 22:56:00,
2013-11-16 18:01:00,49.4,46.9,30.15,SE,129,0.0,0.0,91,0.00,,,0.06,0,WeatherCatV1.22B15,2013-11-16 23:01:00,
2013-11-16 18:06:00,49.1,46.6,30.15,SE,129,0.0,0.0,91,0.00,,,0.06,0,WeatherCatV1.22B15,2013-11-16 23:06:00,
2013-11-16 18:11:00,49.0,46.8,30.15,SE,129,0.0,0.0,92,0.00,,,0.06,0,WeatherCatV1.22B15,2013-11-16 23:11:00,
2013-11-16 18:16:00,49.0,46.8,30.15,SE,134,0.0,0.0,92,0.00,,,0.06,0,WeatherCatV1.22B15,2013-11-16 23:16:00,
2013-11-16 18:21:00,49.0,46.8,30.15,SE,141,0.0,0.0,92,0.00,,,0.06,0,WeatherCatV1.22B15,2013-11-16 23:21:00,
2013-11-16 18:26:00,48.9,46.7,30.15,ESE,121,0.0,0.0,92,0.00,,,0.06,0,WeatherCatV1.22B15,2013-11-16 23:26:00,
2013-11-16 18:31:00,48.9,47.0,30.15,ESE,120,0.0,0.0,93,0.00,,,0.06,0,WeatherCatV1.22B15,2013-11-16 23:31:00,
2013-11-16 18:36:00,48.8,46.6,30.15,SE,142,0.0,1.0,92,0.00,,,0.06,0,WeatherCatV1.22B15,2013-11-16 23:36:00,
2013-11-16 18:41:00,48.8,46.9,30.15,ESE,109,0.0,2.0,93,0.00,,,0.06,0,WeatherCatV1.22B15,2013-11-16 23:41:00,
2013-11-16 18:46:00,48.7,46.8,30.15,ESE,109,0.0,0.0,93,0.00,,,0.06,0,WeatherCatV1.22B15,2013-11-16 23:46:00,
2013-11-16 18:51:00,48.6,46.7,30.15,ESE,109,0.0,0.0,93,0.00,,,0.06,0,WeatherCatV1.22B15,2013-11-16 23:51:00,
2013-11-16 18:56:00,48.7,46.8,30.15,SSW,211,0.0,0.0,93,0.00,,,0.06,0,WeatherCatV1.22B15,2013-11-16 23:56:00,
2013-11-16 19:01:00,48.7,46.8,30.15,ESE,115,0.0,0.0,93,0.00,,,0.06,0,WeatherCatV1.22B15,2013-11-17 00:01:00,
2013-11-16 19:06:00,48.7,46.8,30.15,ESE,120,0.0,0.0,93,0.00,,,0.06,0,WeatherCatV1.22B15,2013-11-17 00:06:00,
2013-11-16 19:11:00,48.5,46.6,30.15,ESE,120,0.0,0.0,93,0.00,,,0.06,0,WeatherCatV1.22B15,2013-11-17 00:11:00,
2013-11-16 19:16:00,48.2,46.3,30.15,ESE,120,0.0,0.0,93,0.00,,,0.06,0,WeatherCatV1.22B15,2013-11-17 00:16:00,
2013-11-16 19:21:00,48.1,46.2,30.15,ESE,120,0.0,0.0,93,0.00,,,0.06,0,WeatherCatV1.22B15,2013-11-17 00:21:00,
2013-11-16 19:26:00,47.9,46.0,30.15,ESE,120,0.0,0.0,93,0.00,,,0.06,0,WeatherCatV1.22B15,2013-11-17 00:26:00,
2013-11-16 19:31:00,47.6,45.7,30.15,ESE,120,0.0,0.0,93,0.00,,,0.06,0,WeatherCatV1.22B15,2013-11-17 00:31:00,
2013-11-16 19:36:00,47.2,45.3,30.15,ESE,120,0.0,0.0,93,0.00,,,0.06,0,WeatherCatV1.22B15,2013-11-17 00:36:00,
2013-11-16 19:41:00,46.7,44.8,30.15,ESE,120,0.0,0.0,93,0.00,,,0.06,0,WeatherCatV1.22B15,2013-11-17 00:41:00,
2013-11-16 19:46:00,46.5,44.9,30.15,ESE,120,0.0,0.0,94,0.00,,,0.06,0,WeatherCatV1.22B15,2013-11-17 00:46:00,
2013-11-16 19:51:00,46.4,44.8,30.15,ESE,120,0.0,0.0,94,0.00,,,0.06,0,WeatherCatV1.22B15,2013-11-17 00:51:00,
2013-11-16 19:56:00,46.2,44.6,30.15,ESE,120,0.0,0.0,94,0.00,,,0.06,0,WeatherCatV1.22B15,2013-11-17 00:56:00,
2013-11-16 20:01:00,46.0,44.4,30.15,ESE,120,0.0,0.0,94,0.00,,,0.06,0,WeatherCatV1.22B15,2013-11-17 01:01:00,
2013-11-16 20:06:00,45.8,44.5,30.15,ESE,120,0.0,0.0,95,0.00,,,0.06,0,WeatherCatV1.22B15,2013-11-17 01:06:00,
2013-11-16 20:11:00,45.6,44.2,30.15,ESE,120,0.0,0.0,95,0.00,,,0.06,0,WeatherCatV1.22B15,2013-11-17 01:11:00,
2013-11-16 20:16:00,45.4,44.0,30.15,ESE,120,0.0,0.0,95,0.00,,,0.06,0,WeatherCatV1.22B15,2013-11-17 01:16:00,
2013-11-16 20:21:00,45.4,44.0,30.14,ESE,120,0.0,0.0,95,0.00,,,0.06,0,WeatherCatV1.22B15,2013-11-17 01:21:00,
2013-11-16 20:26:00,45.3,44.0,30.14,ESE,120,0.0,0.0,95,0.00,,,0.06,0,WeatherCatV1.22B15,2013-11-17 01:26:00,
2013-11-16 20:31:00,45.1,43.8,30.14,ESE,120,0.0,0.0,95,0.00,,,0.06,0,WeatherCatV1.22B15,2013-11-17 01:31:00,
2013-11-16 20:36:00,45.1,43.8,30.14,ESE,120,0.0,0.0,95,0.00,,,0.06,0,WeatherCatV1.22B15,2013-11-17 01:36:00,
2013-11-16 20:41:00,44.9,43.5,30.14,ESE,120,0.0,0.0,95,0.00,,,0.06,0,WeatherCatV1.22B15,2013-11-17 01:41:00,
2013-11-16 20:46:00,44.8,43.7,30.14,ESE,120,0.0,0.0,96,0.00,,,0.06,0,WeatherCatV1.22B15,2013-11-17 01:46:00,
2013-11-16 20:51:00,44.8,43.7,30.13,ESE,120,0.0,0.0,96,0.00,,,0.06,0,WeatherCatV1.22B15,2013-11-17 01:51:00,
2013-11-16 20:56:00,44.7,43.6,30.14,ESE,120,0.0,0.0,96,0.00,,,0.06,0,WeatherCatV1.22B15,2013-11-17 01:56:00,
2013-11-16 21:01:00,44.9,43.8,30.14,ESE,120,0.0,0.0,96,0.00,,,0.06,0,WeatherCatV1.22B15,2013-11-17 02:01:00,
2013-11-16 21:06:00,44.9,43.8,30.14,ESE,120,0.0,0.0,96,0.00,,,0.06,0,WeatherCatV1.22B15,2013-11-17 02:06:00,
2013-11-16 21:11:00,44.9,43.8,30.14,ESE,120,0.0,0.0,96,0.00,,,0.06,0,WeatherCatV1.22B15,2013-11-17 02:11:00,
2013-11-16 21:16:00,44.7,43.6,30.14,ESE,120,0.0,0.0,96,0.00,,,0.06,0,WeatherCatV1.22B15,2013-11-17 02:16:00,
2013-11-16 21:21:00,44.6,43.5,30.14,ESE,120,0.0,0.0,96,0.00,,,0.06,0,WeatherCatV1.22B15,2013-11-17 02:21:00,
2013-11-16 21:26:00,44.5,43.4,30.14,ESE,120,0.0,0.0,96,0.00,,,0.06,0,WeatherCatV1.22B15,2013-11-17 02:26:00,
2013-11-16 21:31:00,44.7,43.6,30.15,ESE,120,0.0,0.0,96,0.00,,,0.06,0,WeatherCatV1.22B15,2013-11-17 02:31:00,
2013-11-16 21:36:00,44.5,43.4,30.15,ESE,120,0.0,0.0,96,0.00,,,0.06,0,WeatherCatV1.22B15,2013-11-17 02:36:00,
2013-11-16 21:41:00,44.5,43.4,30.15,ESE,120,0.0,0.0,96,0.00,,,0.06,0,WeatherCatV1.22B15,2013-11-17 02:41:00,
2013-11-16 21:46:00,44.5,43.4,30.15,ESE,120,0.0,0.0,96,0.00,,,0.06,0,WeatherCatV1.22B15,2013-11-17 02:46:00,
2013-11-16 21:51:00,44.4,43.3,30.14,ESE,120,0.0,0.0,96,0.00,,,0.06,0,WeatherCatV1.22B15,2013-11-17 02:51:00,
2013-11-16 21:57:00,44.4,43.3,30.14,ESE,120,0.0,0.0,96,0.00,,,0.06,0,WeatherCatV1.22B15,2013-11-17 02:57:00,
2013-11-16 22:02:00,44.3,43.2,30.14,ESE,120,0.0,0.0,96,0.00,,,0.06,0,WeatherCatV1.22B15,2013-11-17 03:02:00,
2013-11-16 22:07:00,44.2,43.4,30.14,ESE,120,0.0,0.0,97,0.00,,,0.06,0,WeatherCatV1.22B15,2013-11-17 03:07:00,
2013-11-16 22:12:00,44.2,43.4,30.14,ESE,120,0.0,0.0,97,0.00,,,0.06,0,WeatherCatV1.22B15,2013-11-17 03:12:00,
2013-11-16 22:17:00,44.1,43.3,30.14,ESE,120,0.0,0.0,97,0.00,,,0.06,0,WeatherCatV1.22B15,2013-11-17 03:17:00,
2013-11-16 22:22:00,44.1,43.3,30.14,ESE,120,0.0,0.0,97,0.00,,,0.06,0,WeatherCatV1.22B15,2013-11-17 03:22:00,
2013-11-16 22:27:00,44.1,43.3,30.14,ESE,120,0.0,0.0,97,0.00,,,0.06,0,WeatherCatV1.22B15,2013-11-17 03:27:00,
2013-11-16 22:32:00,44.1,43.3,30.14,ESE,120,0.0,0.0,97,0.00,,,0.06,0,WeatherCatV1.22B15,2013-11-17 03:32:00,
2013-11-16 22:37:00,44.1,43.3,30.14,ESE,120,0.0,0.0,97,0.00,,,0.06,0,WeatherCatV1.22B15,2013-11-17 03:37:00,
2013-11-16 22:42:00,44.2,43.4,30.14,ESE,120,0.0,0.0,97,0.00,,,0.06,0,WeatherCatV1.22B15,2013-11-17 03:42:00,
2013-11-16 22:47:00,44.3,43.5,30.14,ESE,120,0.0,0.0,97,0.00,,,0.06,0,WeatherCatV1.22B15,2013-11-17 03:47:00,
2013-11-16 22:52:00,44.2,43.4,30.14,ESE,120,0.0,0.0,97,0.00,,,0.06,0,WeatherCatV1.22B15,2013-11-17 03:52:00,
2013-11-16 22:57:00,44.2,43.4,30.14,ESE,120,0.0,0.0,97,0.00,,,0.06,0,WeatherCatV1.22B15,2013-11-17 03:57:00,
2013-11-16 23:02:00,44.4,43.6,30.14,ESE,120,0.0,0.0,97,0.00,,,0.06,0,WeatherCatV1.22B15,2013-11-17 04:02:00,
2013-11-16 23:07:00,44.5,43.7,30.14,ESE,120,0.0,0.0,97,0.00,,,0.06,0,WeatherCatV1.22B15,2013-11-17 04:07:00,
2013-11-16 23:12:00,44.4,43.6,30.13,ESE,120,0.0,0.0,97,0.00,,,0.06,0,WeatherCatV1.22B15,2013-11-17 04:12:00,
2013-11-16 23:16:00,44.5,43.7,30.13,ESE,120,0.0,0.0,97,0.00,,,0.06,0,WeatherCatV1.22B15,2013-11-17 04:16:00,
2013-11-16 23:22:00,44.6,43.8,30.13,ESE,120,0.0,0.0,97,0.00,,,0.06,0,WeatherCatV1.22B15,2013-11-17 04:22:00,
2013-11-16 23:27:00,44.7,43.9,30.13,ESE,120,0.0,0.0,97,0.00,,,0.06,0,WeatherCatV1.22B15,2013-11-17 04:27:00,
2013-11-16 23:32:00,44.8,44.0,30.13,ESE,120,0.0,0.0,97,0.00,,,0.06,0,WeatherCatV1.22B15,2013-11-17 04:32:00,
2013-11-16 23:37:00,44.8,44.0,30.13,ESE,120,0.0,0.0,97,0.00,,,0.06,0,WeatherCatV1.22B15,2013-11-17 04:37:00,
2013-11-16 23:42:00,45.0,44.2,30.13,ESE,120,0.0,0.0,97,0.00,,,0.06,0,WeatherCatV1.22B15,2013-11-17 04:42:00,
2013-11-16 23:47:00,45.1,44.3,30.13,ESE,120,0.0,0.0,97,0.00,,,0.06,0,WeatherCatV1.22B15,2013-11-17 04:47:00,
2013-11-16 23:52:00,45.1,44.3,30.12,ESE,120,0.0,0.0,97,0.00,,,0.06,0,WeatherCatV1.22B15,2013-11-17 04:52:00,
2013-11-16 23:57:00,45.1,44.3,30.13,ESE,120,0.0,0.0,97,0.00,,,0.06,0,WeatherCatV1.22B15,2013-11-17 04:57:00,